Time;durP1;ratioP1;P1;durP2;ratioP2;P2;SDS_P1;SDS_P2;PMS_P1;PMS_P2;Temp;Humidity;BMP_temperature;BMP_pressure;BME280_temperature;BME280_humidity;BME280_pressure;Samples;Min_cycle;Max_cycle;Signal;HPM_P1;HPM_P2
2022/09/21 00:22:40;;;;;;;17.47;8.60;;;11.10;99.90;;;;;;6171267;23;20402;-85
2022/09/21 00:27:48;;;;;;;13.77;7.30;;;11.00;99.90;;;;;;6216672;22;20550;-83
2022/09/21 00:44:09;;;;;;;8.80;6.60;;;10.90;99.90;;;;;;6157593;23;20393;-84
2022/09/21 00:47:27;;;;;;;12.07;7.53;;;10.90;99.90;;;;;;6172503;23;20492;-84
2022/09/21 01:13:45;;;;;;;9.97;7.87;;;10.70;1.00;;;;;;6187761;23;20457;-84
2022/09/21 01:43:05;;;;;;;11.70;9.00;;;10.30;1.00;;;;;;6210044;22;20452;-84
2022/09/21 02:04:21;;;;;;;;;;;;;;;;;;;;;
2022/09/21 02:07:19;;;;;;;11.50;8.60;;;10.00;62.30;;;;;;6117815;22;20291;-84
2022/09/21 02:13:56;;;;;;;15.10;8.05;;;10.00;1.00;;;;;;6095011;23;20754;-84
2022/09/21 02:17:39;;;;;;;13.40;9.20;;;10.00;1.00;;;;;;6095072;23;20569;-84
2022/09/21 02:20:31;;;;;;;10.53;8.63;;;10.00;1.00;;;;;;6043371;23;20858;-83
2022/09/21 02:23:44;;;;;;;;;;;;;;;;;;;;;
2022/09/21 02:35:00;;;;;;;;;;;;;;;;;;;;;
2022/09/21 02:40:45;;;;;;;;;;;;;;;;;;;;;
2022/09/21 02:50:20;;;;;;;11.77;8.15;;;9.80;59.50;;;;;;6248305;22;20442;-83
2022/09/21 02:53:27;;;;;;;9.33;8.30;;;9.80;37.10;;;;;;6133279;23;20159;-84
2022/09/21 02:56:40;;;;;;;9.47;8.57;;;9.80;5.10;;;;;;6148525;23;20407;-84
2022/09/21 03:07:33;;;;;;;;;;;;;;;;;;;;;
2022/09/21 03:10:48;;;;;;;19.63;10.80;;;9.60;1.00;;;;;;6069262;23;20181;-85
2022/09/21 03:20:47;;;;;;;16.20;10.10;;;9.60;20.70;;;;;;6222965;22;20448;-85
2022/09/21 03:23:08;;;;;;;12.20;9.43;;;9.60;61.20;;;;;;6211569;23;20407;-85
2022/09/21 03:42:33;;;;;;;12.77;11.05;;;9.40;99.90;;;;;;6081423;23;20160;-85
2022/09/21 04:23:14;;;;;;;11.30;9.90;;;9.20;99.90;;;;;;6214081;22;20463;-85
2022/09/21 04:29:31;;;;;;;12.98;8.82;;;9.20;99.90;;;;;;6042897;23;20405;-85
2022/09/21 04:32:34;;;;;;;12.45;9.80;;;9.20;99.90;;;;;;5959261;24;20159;-85
2022/09/21 05:04:35;;;;;;;14.73;12.17;;;9.20;99.90;;;;;;6096568;23;20384;-85
2022/09/21 05:08:01;;;;;;;;;;;;;;;;;;;;;
2022/09/21 06:39:52;;;;;;;12.80;7.97;;;35.30;99.90;;;;;;6214200;23;20432;-86
2022/09/21 06:42:29;;;;;;;8.23;7.37;;;36.50;99.90;;;;;;6214099;23;20369;-86
2022/09/21 06:44:57;;;;;;;7.63;6.83;;;37.40;99.90;;;;;;6187735;23;20407;-87
2022/09/21 06:47:46;;;;;;;7.80;6.30;;;38.40;99.90;;;;;;6212337;23;20895;-85
2022/09/21 06:50:32;;;;;;;8.90;6.80;;;38.90;99.90;;;;;;6187419;23;20447;-86
2022/09/21 06:53:42;;;;;;;15.83;10.73;;;36.80;99.90;;;;;;6128148;23;20400;-85
2022/09/21 06:56:21;;;;;;;8.70;6.47;;;34.60;94.30;;;;;;6214251;23;20428;-85
2022/09/21 06:58:49;;;;;;;10.00;6.67;;;33.70;90.30;;;;;;6212578;23;20897;-85
2022/09/21 07:01:18;;;;;;;9.07;7.00;;;32.90;83.30;;;;;;6214835;23;20724;-84
2022/09/21 07:03:48;;;;;;;9.20;8.30;;;31.80;74.10;;;;;;6213885;23;20392;-85
2022/09/21 07:06:17;;;;;;;10.60;7.43;;;32.10;75.10;;;;;;6215430;23;20428;-85
2022/09/21 07:08:43;;;;;;;8.80;7.20;;;32.30;73.70;;;;;;6214000;23;20380;-85
2022/09/21 07:11:09;;;;;;;12.63;8.00;;;32.20;69.90;;;;;;6214100;23;20412;-85
2022/09/21 07:13:35;;;;;;;13.93;7.43;;;34.10;75.10;;;;;;6213677;23;20373;-85
2022/09/21 07:16:08;;;;;;;9.90;8.00;;;33.80;67.50;;;;;;6214465;23;20734;-85
2022/09/21 07:18:50;;;;;;;10.70;8.53;;;34.10;63.90;;;;;;6214403;23;20153;-85
2022/09/21 07:21:16;;;;;;;12.33;7.60;;;34.40;60.30;;;;;;6212732;23;20365;-85
2022/09/21 07:26:27;;;;;;;11.93;7.80;;;33.80;54.50;;;;;;6198779;23;20189;-85
2022/09/21 07:29:00;;;;;;;11.03;8.20;;;36.50;59.90;;;;;;6213788;23;20773;-86
2022/09/21 07:35:12;;;;;;;8.00;7.27;;;41.10;56.00;;;;;;6192889;23;20387;-86
2022/09/21 07:37:47;;;;;;;9.63;8.73;;;43.50;52.30;;;;;;6210121;23;20400;-86
2022/09/21 07:40:38;;;;;;;11.97;8.60;;;44.50;48.10;;;;;;6215065;23;20419;-87
2022/09/21 07:43:09;;;;;;;9.43;8.63;;;45.10;42.50;;;;;;6213770;23;20765;-86
2022/09/21 07:46:00;;;;;;;9.10;8.20;;;45.50;37.60;;;;;;6215651;23;20427;-87
2022/09/21 07:49:13;;;;;;;9.30;8.43;;;45.90;34.20;;;;;;6214444;23;20384;-86
2022/09/21 07:51:53;;;;;;;11.27;10.17;;;46.30;29.80;;;;;;6207715;23;20387;-86
2022/09/21 07:54:39;;;;;;;11.20;9.90;;;46.30;25.80;;;;;;6215755;23;20373;-86
2022/09/21 08:00:16;;;;;;;11.50;10.40;;;46.40;20.40;;;;;;6216377;23;20517;-87
2022/09/21 08:03:19;;;;;;;13.17;11.80;;;46.60;18.50;;;;;;6215887;23;20373;-87
2022/09/21 08:06:05;;;;;;;12.37;11.37;;;46.20;15.00;;;;;;6212937;23;20418;-86
2022/09/21 08:08:42;;;;;;;11.07;9.97;;;46.00;13.60;;;;;;6178665;23;20396;-86
2022/09/21 08:11:42;;;;;;;12.13;10.97;;;46.00;11.90;;;;;;6213797;23;20386;-86
2022/09/21 08:14:28;;;;;;;12.60;10.00;;;46.30;12.00;;;;;;6213288;23;20400;-86
2022/09/21 08:17:14;;;;;;;11.93;9.03;;;46.10;9.20;;;;;;6215515;23;20508;-86
2022/09/21 08:20:06;;;;;;;10.00;9.00;;;45.80;7.30;;;;;;6172598;23;20392;-87
2022/09/21 08:23:01;;;;;;;11.10;10.10;;;45.30;5.80;;;;;;6213752;23;20389;-86
2022/09/21 08:26:25;;;;;;;12.00;10.90;;;44.80;4.30;;;;;;6201615;23;20916;-85
2022/09/21 08:32:17;;;;;;;11.97;10.60;;;45.10;4.50;;;;;;6199214;23;20439;-87
2022/09/21 08:34:48;;;;;;;9.67;8.87;;;45.30;3.50;;;;;;6215306;23;20380;-85
2022/09/21 08:37:38;;;;;;;10.53;9.53;;;45.00;3.00;;;;;;6188500;23;20420;-86
2022/09/21 08:40:18;;;;;;;12.00;8.50;;;44.90;1.80;;;;;;6214598;23;20396;-86
2022/09/21 08:43:07;;;;;;;8.57;7.60;;;44.40;1.10;;;;;;6221001;23;20357;-87
2022/09/21 08:45:43;;;;;;;11.80;8.00;;;44.60;1.00;;;;;;6220873;23;20419;-87
2022/09/21 08:48:39;;;;;;;13.87;9.00;;;44.50;1.00;;;;;;6216004;23;20822;-87
2022/09/21 08:51:17;;;;;;;9.27;7.40;;;44.40;1.00;;;;;;6144930;23;20388;-87
2022/09/21 08:53:50;;;;;;;8.73;7.30;;;44.40;1.00;;;;;;6212276;23;20866;-86
2022/09/21 08:56:21;;;;;;;10.10;7.67;;;43.80;1.00;;;;;;6212183;23;20443;-87
2022/09/21 08:59:10;;;;;;;12.40;8.90;;;43.70;1.00;;;;;;6212103;23;20377;-87
2022/09/21 09:08:20;;;;;;;7.83;7.03;;;42.30;1.00;;;;;;6199130;23;20384;-86
2022/09/21 09:11:03;;;;;;;13.70;8.03;;;41.60;1.00;;;;;;6213425;23;20368;-85
2022/09/21 09:14:15;;;;;;;9.80;7.60;;;40.40;1.00;;;;;;6214265;23;20361;-86
2022/09/21 09:17:18;;;;;;;9.83;7.57;;;40.10;1.00;;;;;;6174060;23;20487;-86
2022/09/21 09:19:58;;;;;;;7.27;6.50;;;39.40;1.00;;;;;;6212524;23;20866;-86
2022/09/21 09:22:38;;;;;;;6.93;6.23;;;39.30;1.00;;;;;;6212128;23;20412;-86
2022/09/21 09:28:25;;;;;;;10.37;7.40;;;40.70;1.00;;;;;;6200360;23;20381;-86
2022/09/21 09:31:01;;;;;;;10.33;8.47;;;41.50;1.00;;;;;;6175886;23;20385;-85
2022/09/21 09:33:39;;;;;;;8.37;6.97;;;41.50;1.00;;;;;;6189292;23;20463;-85
2022/09/21 09:36:05;;;;;;;12.20;8.90;;;40.80;1.00;;;;;;6213973;23;20991;-86
2022/09/21 09:38:57;;;;;;;11.20;7.57;;;40.70;1.00;;;;;;6187988;23;20397;-86
2022/09/21 09:45:11;;;;;;;10.00;7.07;;;40.90;1.00;;;;;;6197674;23;20389;-86
2022/09/21 09:47:58;;;;;;;9.80;6.47;;;41.20;1.00;;;;;;6214572;23;20408;-86
2022/09/21 09:50:58;;;;;;;5.97;5.37;;;41.00;1.00;;;;;;6213626;23;20373;-86
2022/09/21 09:53:42;;;;;;;8.77;6.27;;;40.60;7.00;;;;;;6164295;23;20499;-86
2022/09/21 09:56:37;;;;;;;6.90;5.37;;;41.10;1.00;;;;;;6213410;23;20574;-86
2022/09/21 09:59:40;;;;;;;;;;;;;;;;;;;;;
2022/09/21 10:02:23;;;;;;;9.27;7.00;;;41.20;1.00;;;;;;6215243;23;20436;-86
2022/09/21 10:05:18;;;;;;;10.73;7.10;;;41.00;1.00;;;;;;6214790;23;20826;-86
2022/09/21 10:07:52;;;;;;;13.90;7.40;;;39.80;1.00;;;;;;6201189;23;20388;-86
2022/09/21 10:14:06;;;;;;;6.67;3.70;;;39.40;1.00;;;;;;6112056;23;20388;-85
2022/09/21 10:16:58;;;;;;;5.73;4.63;;;39.80;1.00;;;;;;6206118;23;20467;-86
2022/09/21 10:19:42;;;;;;;;;;;;;;;;;;;;;
2022/09/21 10:22:37;;;;;;;6.80;5.97;;;39.10;1.00;;;;;;6214959;23;20425;-86
2022/09/21 10:26:02;;;;;;;;;;;;;;;;;;;;;
2022/09/21 10:28:30;;;;;;;11.50;6.97;;;38.20;1.00;;;;;;6212057;23;20480;-85
2022/09/21 10:31:16;;;;;;;8.93;6.30;;;37.70;1.00;;;;;;6214673;23;20375;-86
2022/09/21 10:34:15;;;;;;;9.97;8.07;;;38.10;1.00;;;;;;6213693;23;20376;-86
2022/09/21 10:37:22;;;;;;;13.67;8.00;;;38.30;1.00;;;;;;6148903;23;20439;-86
2022/09/21 10:40:07;;;;;;;16.20;7.37;;;38.20;1.00;;;;;;6173547;23;20435;-86
2022/09/21 10:43:03;;;;;;;12.03;7.30;;;38.30;1.00;;;;;;6211917;23;20385;-87
2022/09/21 10:45:37;;;;;;;14.70;6.87;;;38.40;1.00;;;;;;6212700;23;20377;-86
2022/09/21 10:48:14;;;;;;;12.13;6.70;;;38.20;1.00;;;;;;6213396;23;20353;-86
2022/09/21 10:50:52;;;;;;;9.10;6.40;;;36.40;1.00;;;;;;6213839;23;20383;-86
2022/09/21 10:53:31;;;;;;;12.63;7.20;;;35.70;1.00;;;;;;6213528;23;20373;-86
2022/09/21 10:56:03;;;;;;;15.50;7.77;;;35.30;1.00;;;;;;6212137;23;20424;-86
2022/09/21 10:58:34;;;;;;;12.13;7.87;;;33.90;1.00;;;;;;6213229;23;20527;-85
2022/09/21 11:01:21;;;;;;;12.40;5.60;;;32.60;1.00;;;;;;6212906;23;20483;-86
2022/09/21 11:04:08;;;;;;;9.67;5.97;;;31.60;1.00;;;;;;6211449;23;20382;-85
2022/09/21 11:06:45;;;;;;;10.20;6.13;;;31.40;1.00;;;;;;6211514;23;20389;-85
2022/09/21 11:09:32;;;;;;;12.40;6.10;;;30.30;1.00;;;;;;6184952;23;20462;-86
2022/09/21 11:12:57;;;;;;;10.13;5.60;;;30.80;1.00;;;;;;6212341;23;20801;-86
2022/09/21 11:15:46;;;;;;;;;;;;;;;;;;;;;
2022/09/21 11:18:41;;;;;;;8.00;4.10;;;29.70;1.00;;;;;;6216334;23;20432;-85
2022/09/21 11:21:39;;;;;;;8.63;4.70;;;30.50;1.00;;;;;;6181864;23;20385;-85
2022/09/21 11:24:23;;;;;;;10.33;3.97;;;30.10;1.00;;;;;;6215346;23;20368;-85
2022/09/21 11:27:05;;;;;;;7.80;4.53;;;30.80;1.00;;;;;;6215659;23;20964;-85
2022/09/21 11:30:12;;;;;;;6.07;3.03;;;29.80;1.00;;;;;;6213827;23;20377;-86
2022/09/21 11:33:20;;;;;;;;;;;;;;;;;;;;;
2022/09/21 11:35:57;;;;;;;8.43;3.50;;;29.00;1.00;;;;;;6208840;23;21606;-85
2022/09/21 11:38:25;;;;;;;9.50;3.00;;;28.10;1.00;;;;;;6188218;23;20387;-85
2022/09/21 11:41:32;;;;;;;8.93;2.97;;;27.50;1.00;;;;;;6213716;23;20405;-85
2022/09/21 11:44:11;;;;;;;12.57;3.33;;;27.10;1.00;;;;;;6215527;23;20375;-84
2022/09/21 11:47:06;;;;;;;10.03;3.43;;;27.50;1.00;;;;;;6213682;23;20495;-85
2022/09/21 11:49:57;;;;;;;5.10;2.50;;;29.10;3.70;;;;;;6141968;23;20391;-85
2022/09/21 11:52:52;;;;;;;9.23;3.77;;;30.50;6.50;;;;;;6186565;23;20399;-86
2022/09/21 11:55:20;;;;;;;6.27;2.60;;;31.80;8.40;;;;;;6211660;23;20420;-85
2022/09/21 11:58:02;;;;;;;7.30;2.43;;;32.50;9.00;;;;;;6213885;23;20913;-86
2022/09/21 12:00:38;;;;;;;4.40;2.83;;;33.50;10.20;;;;;;6213807;23;20353;-85
2022/09/21 12:03:36;;;;;;;7.13;3.57;;;33.50;8.30;;;;;;6214442;23;20361;-87
2022/09/21 12:06:36;;;;;;;11.03;4.00;;;33.10;6.40;;;;;;6210455;23;20416;-87
2022/09/21 12:09:33;;;;;;;9.70;4.03;;;32.10;4.50;;;;;;6212726;23;20373;-87
2022/09/21 12:12:19;;;;;;;6.37;3.00;;;31.30;3.90;;;;;;6210135;23;20459;-87
2022/09/21 12:14:48;;;;;;;6.63;2.93;;;31.60;5.50;;;;;;6212064;23;20870;-86
2022/09/21 12:17:57;;;;;;;8.57;2.60;;;32.50;6.80;;;;;;6213015;23;20894;-86
2022/09/21 12:20:52;;;;;;;5.60;2.20;;;33.10;7.40;;;;;;6091390;23;20523;-87
2022/09/21 12:23:41;;;;;;;4.23;1.80;;;33.60;7.30;;;;;;6212370;23;20443;-88
2022/09/21 12:26:19;;;;;;;;;;;;;;;;;;;;;
2022/09/21 12:32:35;;;;;;;6.00;2.53;;;33.60;5.90;;;;;;6196120;23;20459;-88
2022/09/21 12:35:24;;;;;;;4.20;2.13;;;33.60;4.60;;;;;;6213330;23;20386;-86
2022/09/21 12:38:32;;;;;;;4.00;2.23;;;33.80;4.50;;;;;;6214052;23;20456;-85
2022/09/21 12:41:20;;;;;;;4.23;1.73;;;34.00;5.10;;;;;;6215323;23;20416;-85
2022/09/21 12:44:25;;;;;;;;;;;;;;;;;;;;;
2022/09/21 12:47:20;;;;;;;7.00;2.30;;;33.60;4.70;;;;;;6211897;23;20475;-87
2022/09/21 12:50:00;;;;;;;5.37;2.30;;;33.40;3.00;;;;;;6172246;23;20738;-86
2022/09/21 12:52:26;;;;;;;7.60;2.67;;;33.20;2.20;;;;;;6210796;23;20383;-86
2022/09/21 12:55:40;;;;;;;;;;;;;;;;;;;;;
2022/09/21 12:58:44;;;;;;;5.27;2.30;;;32.10;1.00;;;;;;6212393;23;20767;-86
2022/09/21 13:01:35;;;;;;;5.93;1.80;;;32.00;1.00;;;;;;6206850;23;20715;-87
2022/09/21 13:04:43;;;;;;;4.20;1.90;;;31.50;1.00;;;;;;6211885;23;20444;-85
2022/09/21 13:07:23;;;;;;;5.00;2.00;;;31.30;7.70;;;;;;6212667;23;20388;-87
2022/09/21 13:09:53;;;;;;;5.10;2.10;;;31.50;1.00;;;;;;6209810;23;20396;-88
2022/09/21 13:12:43;;;;;;;7.30;2.27;;;31.60;1.00;;;;;;6210463;23;20816;-85
2022/09/21 13:16:03;;;;;;;4.43;2.13;;;31.50;1.00;;;;;;6212327;23;21385;-86
2022/09/21 13:18:33;;;;;;;3.30;1.80;;;31.30;1.00;;;;;;6158997;23;20389;-88
2022/09/21 13:24:44;;;;;;;7.70;2.30;;;30.90;1.00;;;;;;6196456;23;21093;-85
2022/09/21 13:30:51;;;;;;;3.90;1.87;;;31.00;1.00;;;;;;6196993;23;20396;-84
2022/09/21 13:33:22;;;;;;;7.23;2.40;;;30.60;1.00;;;;;;6213608;23;20394;-84
2022/09/21 13:39:06;;;;;;;5.13;1.90;;;29.50;1.00;;;;;;6218672;23;20361;-84
2022/09/21 13:42:01;;;;;;;5.90;2.10;;;29.50;1.00;;;;;;6216425;23;20423;-84
2022/09/21 13:45:03;;;;;;;4.97;2.10;;;29.60;1.00;;;;;;6206563;23;20389;-85
2022/09/21 13:47:38;;;;;;;4.73;2.40;;;29.50;1.00;;;;;;6178292;23;20436;-86
2022/09/21 13:50:57;;;;;;;;;;;;;;;;;;;;;
2022/09/21 13:53:37;;;;;;;3.70;1.90;;;29.20;1.00;;;;;;6175310;23;20475;-85
2022/09/21 13:56:22;;;;;;;5.53;2.17;;;29.40;1.00;;;;;;6212008;23;20439;-84
2022/09/21 13:58:52;;;;;;;5.90;2.93;;;29.80;1.00;;;;;;6212247;23;20420;-85
2022/09/21 14:01:23;;;;;;;7.30;2.70;;;29.90;1.00;;;;;;6212082;23;20443;-85
2022/09/21 14:03:56;;;;;;;8.03;3.00;;;29.90;1.00;;;;;;6210343;23;20404;-84
2022/09/21 14:06:26;;;;;;;4.17;2.30;;;30.00;1.00;;;;;;6212008;23;20435;-85
2022/09/21 14:08:58;;;;;;;4.27;2.23;;;29.90;1.00;;;;;;6211353;23;20385;-84
2022/09/21 14:11:43;;;;;;;5.20;2.33;;;29.90;1.00;;;;;;6211799;23;20396;-85
2022/09/21 14:14:20;;;;;;;4.00;1.70;;;29.60;1.00;;;;;;6211023;23;20455;-85
2022/09/21 14:16:54;;;;;;;8.07;2.03;;;29.10;1.00;;;;;;6212127;23;20566;-84
2022/09/21 14:19:22;;;;;;;3.90;1.83;;;29.00;1.00;;;;;;6210270;23;20787;-83
2022/09/21 14:22:06;;;;;;;5.60;2.20;;;29.20;1.00;;;;;;6212226;23;20736;-84
2022/09/21 14:24:40;;;;;;;4.93;2.00;;;29.10;1.00;;;;;;6212116;23;20381;-85
2022/09/21 14:27:30;;;;;;;5.23;1.80;;;28.80;1.00;;;;;;6213660;23;20396;-84
2022/09/21 14:30:15;;;;;;;5.00;2.03;;;28.70;1.00;;;;;;6214811;23;20385;-84
2022/09/21 14:32:52;;;;;;;6.27;2.10;;;28.70;1.00;;;;;;6215323;23;20416;-83
2022/09/21 14:35:25;;;;;;;8.33;1.80;;;28.50;1.00;;;;;;6217229;23;20758;-83
2022/09/21 14:38:48;;;;;;;5.00;2.03;;;28.30;1.00;;;;;;6213645;23;20396;-84
2022/09/21 14:41:50;;;;;;;;;;;;;;;;;;;;;
2022/09/21 14:44:29;;;;;;;3.10;1.40;;;28.30;1.00;;;;;;6205237;23;20925;-84
2022/09/21 14:47:28;;;;;;;3.50;1.60;;;28.20;1.00;;;;;;6213678;23;20405;-85
2022/09/21 14:50:32;;;;;;;4.60;1.60;;;28.30;1.00;;;;;;6178571;23;20388;-84
2022/09/21 14:53:30;;;;;;;5.27;1.53;;;28.20;1.00;;;;;;6216342;23;20379;-85
2022/09/21 14:56:21;;;;;;;3.10;1.40;;;28.20;1.00;;;;;;6217814;23;20507;-85
2022/09/21 14:59:03;;;;;;;6.13;1.90;;;28.10;1.00;;;;;;6216680;23;20508;-85
2022/09/21 15:01:33;;;;;;;2.77;1.70;;;27.70;1.00;;;;;;6216045;23;20439;-85
2022/09/21 15:04:32;;;;;;;5.60;1.90;;;27.30;1.00;;;;;;6216648;23;20463;-85
2022/09/21 15:10:56;;;;;;;5.50;1.80;;;26.30;1.00;;;;;;6220958;23;20372;-85
2022/09/21 15:13:55;;;;;;;5.30;1.70;;;25.70;1.00;;;;;;6221037;23;20363;-85
2022/09/21 15:16:36;;;;;;;4.10;1.60;;;25.30;1.00;;;;;;6221339;23;20455;-85
2022/09/21 15:19:24;;;;;;;2.03;1.53;;;25.00;1.00;;;;;;6220327;23;20364;-86
2022/09/21 15:21:53;;;;;;;6.37;1.73;;;24.80;1.00;;;;;;6221457;23;20446;-85
2022/09/21 15:24:34;;;;;;;2.80;1.80;;;24.70;1.00;;;;;;6221673;23;20380;-85
2022/09/21 15:27:15;;;;;;;5.47;1.70;;;24.50;1.00;;;;;;6220727;23;20402;-86
2022/09/21 15:30:07;;;;;;;3.93;1.60;;;24.30;1.00;;;;;;6193428;23;20386;-86
2022/09/21 15:32:39;;;;;;;5.87;1.80;;;24.10;1.00;;;;;;6220071;23;20369;-86
2022/09/21 15:35:31;;;;;;;4.40;1.30;;;24.00;1.00;;;;;;6220694;23;20382;-85
2022/09/21 15:38:43;;;;;;;3.23;1.67;;;24.00;1.00;;;;;;6183914;23;20394;-85
2022/09/21 15:42:09;;;;;;;5.47;1.80;;;23.80;1.00;;;;;;6214061;23;20412;-85
2022/09/21 15:44:40;;;;;;;4.73;1.50;;;23.60;1.00;;;;;;6210225;23;20402;-85
2022/09/21 15:47:10;;;;;;;5.03;1.90;;;23.30;1.00;;;;;;6218768;23;20407;-85
2022/09/21 15:49:38;;;;;;;3.30;1.67;;;23.40;1.00;;;;;;6219761;23;20390;-85
2022/09/21 15:52:15;;;;;;;3.60;1.70;;;23.40;1.00;;;;;;6217969;23;20430;-85
2022/09/21 15:54:43;;;;;;;6.03;1.80;;;23.20;1.00;;;;;;6222979;23;20436;-86
2022/09/21 15:57:31;;;;;;;5.60;1.53;;;23.20;1.00;;;;;;6221785;23;20432;-86
2022/09/21 16:00:22;;;;;;;5.70;1.70;;;23.10;1.00;;;;;;6224722;23;20387;-85
2022/09/21 16:03:26;;;;;;;6.40;1.37;;;23.10;1.00;;;;;;6223403;23;20446;-84
2022/09/21 16:06:01;;;;;;;5.60;1.70;;;23.00;1.00;;;;;;6197851;23;20457;-85
2022/09/21 16:08:38;;;;;;;4.30;1.73;;;23.00;1.00;;;;;;6219586;23;20938;-85
2022/09/21 16:11:57;;;;;;;4.43;1.67;;;23.00;1.00;;;;;;6192197;23;20741;-84
2022/09/21 16:17:22;;;;;;;;;;;;;;;;;;;;;
2022/09/21 16:19:53;;;;;;;3.30;1.40;;;22.60;1.00;;;;;;6219452;23;20740;-84
2022/09/21 16:28:43;;;;;;;4.03;1.73;;;22.00;1.00;;;;;;6204143;23;20420;-82
2022/09/21 16:31:41;;;;;;;;;;;;;;;;;;;;;
2022/09/21 16:38:00;;;;;;;3.90;1.70;;;22.00;1.00;;;;;;6185698;23;21191;-84
2022/09/21 16:41:25;;;;;;;;;;;;;;;;;;;;;
2022/09/21 16:44:19;;;;;;;9.57;2.30;;;21.80;5.80;;;;;;6219502;23;20479;-84
2022/09/21 16:47:02;;;;;;;5.37;1.43;;;21.80;1.00;;;;;;6154614;23;21238;-84
2022/09/21 16:52:57;;;;;;;4.37;2.07;;;21.60;1.00;;;;;;6211492;23;20387;-85
2022/09/21 17:01:42;;;;;;;6.47;3.13;;;20.90;1.00;;;;;;6207476;23;20396;-85
2022/09/21 17:04:46;;;;;;;5.27;2.93;;;20.80;1.00;;;;;;6194495;23;20383;-85
2022/09/21 17:12:54;;;;;;;4.73;2.20;;;20.60;1.00;;;;;;6223730;23;20446;-85
2022/09/21 17:15:59;;;;;;;4.17;1.40;;;20.50;1.00;;;;;;6217834;23;20420;-84
2022/09/21 17:18:54;;;;;;;3.13;1.20;;;20.30;1.00;;;;;;6218272;23;20385;-84
2022/09/21 17:21:40;;;;;;;5.23;2.10;;;20.10;1.00;;;;;;6210175;23;20385;-84
2022/09/21 17:27:16;;;;;;;3.10;1.53;;;19.90;1.00;;;;;;6206030;23;20436;-85
2022/09/21 17:30:23;;;;;;;6.20;2.00;;;19.80;1.00;;;;;;6241928;23;20387;-85
2022/09/21 17:33:11;;;;;;;6.40;3.00;;;19.70;1.30;;;;;;6214627;23;20390;-84
2022/09/21 17:35:43;;;;;;;2.93;1.73;;;19.60;2.30;;;;;;6217836;23;20430;-85
2022/09/21 17:38:17;;;;;;;5.20;1.90;;;19.50;3.80;;;;;;6220272;23;20374;-83
2022/09/21 17:41:32;;;;;;;3.80;1.47;;;19.40;4.00;;;;;;6218700;23;20865;-85
2022/09/21 17:44:26;;;;;;;5.47;1.77;;;19.30;5.00;;;;;;6218355;23;20383;-85
2022/09/21 17:47:17;;;;;;;4.90;2.00;;;19.10;6.40;;;;;;6212333;23;20492;-85
2022/09/21 17:49:45;;;;;;;7.13;1.93;;;19.00;16.80;;;;;;6243983;23;20393;-85
2022/09/21 17:55:12;;;;;;;4.80;1.70;;;18.80;9.90;;;;;;6217611;23;20884;-84
2022/09/21 17:58:15;;;;;;;4.70;1.80;;;18.70;10.90;;;;;;6217034;23;20421;-84
2022/09/21 18:01:14;;;;;;;;;;;;;;;;;;;;;
2022/09/21 18:03:42;;;;;;;4.73;1.90;;;18.50;12.30;;;;;;6217054;23;20428;-85
2022/09/21 18:06:12;;;;;;;6.37;2.97;;;18.40;13.20;;;;;;6213894;23;20397;-85
2022/09/21 18:08:39;;;;;;;4.43;2.47;;;18.30;14.20;;;;;;6213243;23;20450;-86
2022/09/21 18:11:20;;;;;;;3.27;1.70;;;18.20;15.10;;;;;;6215059;23;20390;-84
2022/09/21 18:14:26;;;;;;;3.17;1.87;;;18.10;16.20;;;;;;6214640;23;20416;-86
2022/09/21 18:21:01;;;;;;;3.93;1.77;;;17.90;18.60;;;;;;6168159;23;20381;-86
2022/09/21 18:24:08;;;;;;;6.10;1.90;;;17.80;19.40;;;;;;6211937;23;20377;-88
2022/09/21 18:26:57;;;;;;;7.03;3.23;;;17.70;19.90;;;;;;6203614;23;20425;-88
2022/09/21 18:29:40;;;;;;;3.50;1.70;;;17.60;21.10;;;;;;6236113;23;20385;-89
2022/09/21 18:32:27;;;;;;;8.70;3.00;;;17.50;22.40;;;;;;6215308;23;20623;-87
2022/09/21 18:36:06;;;;;;;;;;;;;;;;;;;;;
2022/09/21 18:38:21;;;;;;;4.47;2.10;;;17.30;25.40;;;;;;6192993;23;20791;-87
2022/09/21 18:40:59;;;;;;;4.53;2.13;;;17.30;26.50;;;;;;6214553;23;20353;-87
2022/09/21 18:43:24;;;;;;;3.80;2.30;;;17.20;28.20;;;;;;6214486;23;20391;-87
2022/09/21 18:46:14;;;;;;;4.50;2.50;;;17.10;28.50;;;;;;6214845;23;20952;-87
2022/09/21 18:49:08;;;;;;;6.50;2.83;;;17.10;30.40;;;;;;6215598;23;20511;-88
2022/09/21 18:54:39;;;;;;;7.10;2.87;;;17.00;33.60;;;;;;6166305;23;20388;-87
2022/09/21 19:01:20;;;;;;;;;;;;;;;;;;;;;
2022/09/21 19:03:44;;;;;;;;;;;;;;;;;;;;;
2022/09/21 19:06:29;;;;;;;3.87;3.17;;;16.70;44.70;;;;;;6215030;23;20462;-87
2022/09/21 19:09:42;;;;;;;3.20;2.73;;;16.60;49.70;;;;;;6213482;23;20873;-88
2022/09/21 19:12:49;;;;;;;3.40;2.67;;;16.50;53.80;;;;;;6238165;23;20415;-86
2022/09/21 19:15:49;;;;;;;6.60;2.97;;;16.40;58.90;;;;;;6204577;23;20395;-88
2022/09/21 19:18:34;;;;;;;6.80;3.10;;;16.30;69.90;;;;;;6194363;23;20391;-88
2022/09/21 19:21:18;;;;;;;4.10;3.07;;;16.20;74.70;;;;;;6215217;23;20706;-88
2022/09/21 19:24:20;;;;;;;10.73;3.63;;;16.20;87.20;;;;;;6214607;23;20375;-88
2022/09/21 19:27:07;;;;;;;7.80;3.87;;;16.10;94.20;;;;;;6238690;23;20457;-88
2022/09/21 19:29:44;;;;;;;8.30;4.27;;;16.10;98.70;;;;;;6213903;23;20880;-87
2022/09/21 19:38:48;;;;;;;6.30;3.80;;;16.10;99.90;;;;;;6200761;23;20418;-87
2022/09/21 19:42:01;;;;;;;7.37;4.10;;;16.00;99.90;;;;;;6241626;23;20394;-87
2022/09/21 20:02:40;;;;;;;10.27;4.37;;;15.40;99.90;;;;;;6214326;23;20371;-87
2022/09/21 20:05:50;;;;;;;9.53;5.80;;;15.40;99.90;;;;;;6192935;23;20422;-88
2022/09/21 20:09:06;;;;;;;10.23;4.90;;;15.30;99.90;;;;;;6215188;23;20383;-87
2022/09/21 20:12:12;;;;;;;;;;;;;;;;;;;;;
2022/09/21 20:18:48;;;;;;;7.10;5.40;;;15.10;99.90;;;;;;6150825;23;20840;-88
2022/09/21 20:28:40;;;;;;;6.80;4.97;;;14.90;99.90;;;;;;6107873;23;20388;-88
2022/09/21 20:31:47;;;;;;;7.00;5.07;;;14.80;99.90;;;;;;6035658;23;20383;-88
2022/09/21 21:01:47;;;;;;;;;;;;;;;;;;;;;
2022/09/21 21:04:34;;;;;;;5.77;4.53;;;14.30;99.90;;;;;;6072335;23;20479;-85
2022/09/21 21:07:00;;;;;;;6.43;5.10;;;14.20;99.90;;;;;;6116247;22;20446;-86
2022/09/21 21:20:02;;;;;;;7.13;6.37;;;14.00;99.90;;;;;;6287804;22;20373;-87
2022/09/21 22:07:47;;;;;;;7.73;5.37;;;13.30;99.90;;;;;;6204439;23;20436;-89
2022/09/21 22:17:15;;;;;;;8.30;5.30;;;13.10;99.90;;;;;;6106386;23;20412;-89
2022/09/21 22:23:41;;;;;;;6.63;5.67;;;13.00;1.00;;;;;;6182432;23;20377;-88
2022/09/21 22:30:16;;;;;;;8.03;6.20;;;13.00;1.00;;;;;;6069785;23;20775;-87
